createdAt,value
2019-04-20T00:00:42.941Z,58.3490
2019-04-20T00:01:45.310Z,58.2849
2019-04-20T00:02:53.209Z,58.3093
2019-04-20T00:03:56.356Z,59.3378
2019-04-20T00:04:59.297Z,59.7681
2019-04-20T00:06:03.425Z,60.3815
2019-04-20T00:07:06.258Z,60.8270
2019-04-20T00:08:19.227Z,61.4771
2019-04-20T00:09:24.020Z,61.4618
2019-04-20T00:10:27.365Z,61.9562
2019-04-20T00:11:45.886Z,61.5641
2019-04-20T00:12:53.616Z,61.3031
2019-04-20T00:13:55.210Z,61.3977
2019-04-20T00:14:56.499Z,61.6953
2019-04-20T00:15:58.305Z,60.6577
2019-04-20T00:17:01.290Z,60.5051
2019-04-20T00:18:06.694Z,60.7065
2019-04-20T00:19:15.293Z,61.0010
2019-04-20T00:20:25.956Z,60.6470
2019-04-20T00:21:27.293Z,60.0076
2019-04-20T00:22:38.217Z,60.0702
2019-04-20T00:23:43.071Z,59.9054
2019-04-20T00:24:49.649Z,60.4273
2019-04-20T00:26:05.678Z,60.0015
2019-04-20T00:27:28.464Z,59.4751
2019-04-20T00:28:31.607Z,59.1928
2019-04-20T00:29:36.696Z,59.1058
2019-04-20T00:30:48.039Z,58.5138
2019-04-20T00:31:45.945Z,58.0896
2019-04-20T00:32:55.537Z,58.7488
2019-04-20T00:33:59.359Z,58.7060
2019-04-20T00:34:58.302Z,58.9227
2019-04-20T00:36:01.284Z,59.3790
2019-04-20T00:37:05.348Z,60.2777
2019-04-20T00:38:10.293Z,60.3037
2019-04-20T00:39:15.114Z,60.6424
2019-04-20T00:40:21.280Z,60.2258
2019-04-20T00:41:25.720Z,60.8225
2019-04-20T00:42:36.687Z,61.1612
2019-04-20T00:43:39.102Z,61.6403
2019-04-20T00:44:49.593Z,61.7884
2019-04-20T00:46:02.000Z,63.0243
2019-04-20T00:47:14.222Z,63.1281
2019-04-20T00:48:22.669Z,63.3021
2019-04-20T00:49:30.622Z,63.6011
2019-04-20T00:50:40.404Z,63.7095
2019-04-20T00:51:51.148Z,63.3448
2019-04-20T00:52:54.214Z,63.3677
2019-04-20T00:53:51.861Z,63.1022
2019-04-20T00:54:56.273Z,63.3173
2019-04-20T00:55:59.321Z,62.7253
2019-04-20T00:57:13.492Z,62.5208
2019-04-20T00:58:19.308Z,62.6886
2019-04-20T00:59:32.333Z,63.3341
2019-04-20T01:00:40.733Z,63.7598
2019-04-20T01:01:52.348Z,63.7247
2019-04-20T01:02:55.526Z,64.1779
2019-04-20T01:04:10.733Z,64.4602
2019-04-20T01:06:24.813Z,63.8895
2019-04-20T01:07:29.085Z,63.8880
2019-04-20T01:08:23.355Z,63.8468
2019-04-20T01:09:26.523Z,63.6835
2019-04-20T01:10:37.205Z,63.7003
2019-04-20T01:11:42.250Z,63.2471
2019-04-20T01:12:45.847Z,63.6835
2019-04-20T01:13:55.388Z,63.7568
2019-04-20T01:15:02.743Z,63.1830
2019-04-20T01:16:19.491Z,63.5691
2019-04-20T01:17:14.310Z,63.3997
2019-04-20T01:18:17.303Z,63.0793
2019-04-20T01:19:20.570Z,63.3860
2019-04-20T01:20:26.551Z,64.2954
2019-04-20T01:21:33.430Z,64.0436
2019-04-20T01:22:44.637Z,63.6744
2019-04-20T01:23:52.639Z,64.0024
2019-04-20T01:24:54.611Z,64.0299
2019-04-20T01:26:03.958Z,64.3503
2019-04-20T01:27:16.752Z,64.1779
2019-04-20T01:28:35.461Z,64.3732
2019-04-20T01:29:32.381Z,63.8331
2019-04-20T01:30:35.964Z,63.3127
2019-04-20T01:31:52.703Z,63.2197
2019-04-20T01:33:00.764Z,64.4160
2019-04-20T01:34:03.046Z,63.7842
2019-04-20T01:35:14.728Z,64.3229
2019-04-20T01:36:34.960Z,63.9063
2019-04-20T01:37:32.792Z,63.9338
2019-04-20T01:38:45.040Z,63.9704
2019-04-20T01:39:43.109Z,64.8173
2019-04-20T01:40:44.428Z,65.0462
2019-04-20T01:41:47.690Z,65.6886
2019-04-20T01:42:51.202Z,65.6779
2019-04-20T01:43:54.453Z,65.8808
2019-04-20T01:44:58.708Z,66.1234
2019-04-20T01:46:11.314Z,66.3706
2019-04-20T01:47:12.068Z,67.0344
2019-04-20T01:48:24.959Z,66.4424
2019-04-20T01:49:28.638Z,66.7598
2019-04-20T01:50:35.345Z,67.6249
2019-04-20T01:51:53.813Z,67.0924
2019-04-20T01:52:58.263Z,66.9184
2019-04-20T01:54:12.018Z,67.2068
2019-04-20T01:55:24.851Z,67.1153
2019-04-20T01:56:30.249Z,66.6957
2019-04-20T01:57:25.977Z,66.8376
2019-04-20T01:58:50.592Z,67.5700
2019-04-20T01:59:49.338Z,67.2755
2019-04-20T02:00:45.947Z,67.4006
2019-04-20T02:01:55.757Z,67.5975
2019-04-20T02:03:01.942Z,67.3732
2019-04-20T02:04:07.330Z,67.3091
2019-04-20T02:05:20.588Z,67.4647
2019-04-20T02:06:25.071Z,66.9566
2019-04-20T02:07:36.703Z,66.9245
2019-04-20T02:08:38.310Z,66.6499
2019-04-20T02:09:47.483Z,66.9612
2019-04-20T02:10:54.369Z,67.2770
2019-04-20T02:12:06.902Z,67.6234
2019-04-20T02:13:06.682Z,67.5044
2019-04-20T02:14:13.438Z,67.5151
2019-04-20T02:15:28.127Z,67.2709
2019-04-20T02:16:33.606Z,67.5456
2019-04-20T02:17:40.752Z,67.4601
2019-04-20T02:18:58.729Z,67.4739
2019-04-20T02:20:10.450Z,67.5547
2019-04-20T02:21:16.582Z,67.8401
2019-04-20T02:22:15.719Z,68.0964
2019-04-20T02:23:25.371Z,68.0919
2019-04-20T02:24:21.676Z,68.0858
2019-04-20T02:25:24.955Z,67.5685
2019-04-20T02:26:28.320Z,68.1239
2019-04-20T02:27:38.646Z,68.4428
2019-04-20T02:29:06.033Z,69.3141
2019-04-20T02:30:14.166Z,68.7831
2019-04-20T02:31:34.914Z,67.4495
2019-04-20T02:32:40.267Z,68.0858
2019-04-20T02:33:59.305Z,68.2185
2019-04-20T02:36:11.033Z,68.1773
2019-04-20T02:38:22.593Z,68.0995
2019-04-20T02:40:38.846Z,67.7165
2019-04-20T02:41:47.737Z,67.8584
2019-04-20T02:42:51.585Z,68.0491
2019-04-20T02:44:06.016Z,68.4520
2019-04-20T02:45:13.020Z,68.7587
2019-04-20T02:46:12.322Z,68.8518
2019-04-20T02:47:21.413Z,69.0349
2019-04-20T02:48:25.268Z,69.1524
2019-04-20T02:49:42.076Z,69.7627
2019-04-20T02:50:43.260Z,70.1320
2019-04-20T02:53:06.082Z,70.0648
2019-04-20T02:55:14.450Z,70.5074
2019-04-20T02:58:41.562Z,70.7011
2019-04-20T02:59:59.547Z,70.4631
2019-04-20T03:00:44.792Z,70.7011
2019-04-20T03:01:52.167Z,70.6691
2019-04-20T03:02:52.871Z,70.4265
2019-04-20T03:03:52.623Z,70.9163
2019-04-20T03:05:06.727Z,70.8385
2019-04-20T03:06:18.478Z,70.3304
2019-04-20T03:07:23.951Z,70.4295
2019-04-20T03:08:38.223Z,70.6035
2019-04-20T03:09:46.988Z,70.3197
2019-04-20T03:11:00.773Z,70.6188
2019-04-20T03:12:23.835Z,70.4585
2019-04-20T03:13:16.737Z,70.7332
2019-04-20T03:14:18.564Z,70.6371
2019-04-20T03:15:30.203Z,70.5211
2019-04-20T03:16:32.415Z,70.2419
2019-04-20T03:17:46.430Z,70.4753
2019-04-20T03:18:51.205Z,70.6767
2019-04-20T03:19:54.992Z,70.9926
2019-04-20T03:21:12.734Z,70.4173
2019-04-20T03:22:23.622Z,70.1701
2019-04-20T03:23:30.053Z,70.1839
2019-04-20T03:24:38.812Z,70.1091
2019-04-20T03:25:43.076Z,68.6412
2019-04-20T03:26:40.812Z,68.6275
2019-04-20T03:27:51.638Z,68.3940
2019-04-20T03:30:42.408Z,67.7791
2019-04-20T03:35:00.591Z,69.3812
2019-04-20T03:36:01.935Z,68.9921
2019-04-20T03:37:08.488Z,68.3970
2019-04-20T03:38:00.160Z,68.3284
2019-04-20T03:39:16.767Z,68.3162
2019-04-20T03:40:17.607Z,68.8701
2019-04-20T03:41:19.553Z,69.2485
2019-04-20T03:42:20.185Z,69.0196
2019-04-20T03:43:24.446Z,68.4977
2019-04-20T03:44:30.702Z,68.9097
2019-04-20T03:45:42.702Z,68.9326
2019-04-20T03:46:51.802Z,68.6992
2019-04-20T03:48:03.043Z,68.8975
2019-04-20T03:49:21.357Z,68.7404
2019-04-20T03:50:31.925Z,68.2063
2019-04-20T03:51:45.346Z,66.7186
2019-04-20T03:52:43.628Z,66.3478
2019-04-20T03:53:50.326Z,67.0741
2019-04-20T03:54:51.366Z,65.9159
2019-04-20T03:56:02.216Z,66.5385
2019-04-20T03:57:24.777Z,66.9001
2019-04-20T03:58:24.217Z,65.7801
2019-04-20T03:59:27.657Z,66.2470
2019-04-20T04:00:36.205Z,64.9882
2019-04-20T04:02:08.746Z,63.5828
2019-04-20T04:03:09.387Z,63.2517
2019-04-20T04:04:12.159Z,62.9557
2019-04-20T04:05:09.457Z,63.4684
2019-04-20T04:06:09.616Z,65.5421
2019-04-20T04:07:18.510Z,64.6296
2019-04-20T04:08:26.686Z,59.4492
2019-04-20T04:09:32.634Z,58.8220
2019-04-20T04:10:50.507Z,61.7182
2019-04-20T04:11:56.030Z,62.9786
2019-04-20T04:12:49.742Z,60.3449
2019-04-20T04:13:54.599Z,61.7334
2019-04-20T04:14:56.324Z,60.8438
2019-04-20T04:16:04.425Z,61.0468
2019-04-20T04:17:07.455Z,59.6460
2019-04-20T04:18:17.835Z,59.6506
2019-04-20T04:19:25.478Z,58.5916
2019-04-20T04:20:34.380Z,58.3413
2019-04-20T04:21:49.842Z,59.1730
2019-04-20T04:23:00.113Z,60.1617
2019-04-20T04:24:05.515Z,60.5371
2019-04-20T04:25:15.008Z,61.2467
2019-04-20T04:26:27.441Z,61.7838
2019-04-20T04:27:38.559Z,62.6444
2019-04-20T04:28:41.139Z,63.4729
2019-04-20T04:29:51.279Z,64.1672
2019-04-20T04:30:59.937Z,65.0050
2019-04-20T04:32:17.299Z,65.4582
2019-04-20T04:34:22.937Z,66.8818
2019-04-20T04:35:24.423Z,67.5975
2019-04-20T04:36:35.915Z,68.2567
2019-04-20T04:37:45.925Z,69.0257
2019-04-20T04:38:58.874Z,69.6147
2019-04-20T04:40:14.875Z,69.9413
2019-04-20T04:41:13.638Z,70.5074
2019-04-20T04:42:25.117Z,70.7683
2019-04-20T04:43:26.732Z,70.7912
2019-04-20T04:44:30.231Z,70.9300
2019-04-20T04:45:26.541Z,71.0109
2019-04-20T04:46:33.895Z,71.1299
2019-04-20T04:47:39.306Z,71.3375
2019-04-20T04:48:45.978Z,71.7128
2019-04-20T04:50:01.054Z,71.6060
2019-04-20T04:51:03.843Z,71.7357
2019-04-20T04:52:11.161Z,71.7708
2019-04-20T04:53:27.175Z,71.8669
2019-04-20T04:54:34.051Z,71.8181
2019-04-20T04:55:41.767Z,71.9921
2019-04-20T04:56:39.626Z,71.9417
2019-04-20T04:57:43.244Z,71.0811
2019-04-20T04:58:46.756Z,71.4519
2019-04-20T04:59:50.821Z,71.4290
2019-04-20T05:01:03.761Z,71.4931
2019-04-20T05:02:03.410Z,72.0012
2019-04-20T05:03:23.422Z,72.1187
2019-04-20T05:04:33.937Z,72.2286
2019-04-20T05:05:41.360Z,72.1645
2019-04-20T05:06:46.996Z,72.4025
2019-04-20T05:07:52.169Z,73.1487
2019-04-20T05:08:51.378Z,73.3913
2019-04-20T05:09:54.873Z,73.7026
2019-04-20T05:10:58.343Z,73.8674
2019-04-20T05:12:07.209Z,74.2290
2019-04-20T05:13:09.311Z,74.7707
2019-04-20T05:14:20.284Z,74.9401
2019-04-20T05:15:33.671Z,75.0317
2019-04-20T05:16:45.090Z,75.4299
2019-04-20T05:18:00.210Z,75.5032
2019-04-20T05:19:10.484Z,75.7061
2019-04-20T05:20:09.280Z,75.6924
2019-04-20T05:21:24.496Z,75.9426
2019-04-20T05:22:35.149Z,76.1440
2019-04-20T05:23:28.025Z,76.1257
2019-04-20T05:24:41.402Z,76.3699
2019-04-20T05:25:57.081Z,76.4523
2019-04-20T05:27:01.899Z,76.3287
2019-04-20T05:28:08.198Z,76.4508
2019-04-20T05:29:06.764Z,76.2722
2019-04-20T05:30:05.571Z,76.1440
2019-04-20T05:31:10.230Z,75.8709
2019-04-20T05:32:18.545Z,75.4620
2019-04-20T05:33:34.177Z,75.2209
2019-04-20T05:34:54.094Z,75.2239
2019-04-20T05:36:01.860Z,74.6548
2019-04-20T05:37:17.708Z,74.2992
2019-04-20T05:38:23.075Z,73.9132
2019-04-20T05:39:27.745Z,73.5256
2019-04-20T05:40:35.229Z,73.0587
2019-04-20T05:41:38.331Z,72.8527
2019-04-20T05:42:48.662Z,72.2789
2019-04-20T05:43:50.570Z,71.1818
2019-04-20T05:45:01.883Z,71.0445
2019-04-20T05:46:06.251Z,70.8965
2019-04-20T05:47:18.085Z,71.0384
2019-04-20T05:48:20.513Z,70.3944
2019-04-20T05:49:34.515Z,69.6742
2019-04-20T05:50:42.382Z,69.2302
2019-04-20T05:51:47.718Z,68.6320
2019-04-20T05:53:01.676Z,68.7053
2019-04-20T05:54:11.957Z,68.9113
2019-04-20T05:55:16.181Z,68.6275
2019-04-20T05:56:29.346Z,68.8746
2019-04-20T05:57:34.948Z,68.1926
2019-04-20T05:58:38.787Z,68.1682
2019-04-20T05:59:51.377Z,68.6275
2019-04-20T06:01:01.621Z,69.2027
2019-04-20T06:02:08.034Z,68.9601
2019-04-20T06:03:05.673Z,68.2704
2019-04-20T06:04:30.217Z,68.2780
2019-04-20T06:05:28.726Z,67.7378
2019-04-20T06:06:37.681Z,67.1199
2019-04-20T06:07:42.407Z,67.0420
2019-04-20T06:08:56.627Z,66.3325
2019-04-20T06:09:59.682Z,66.1555
2019-04-20T06:11:07.985Z,66.3294
2019-04-20T06:12:19.847Z,65.2995
2019-04-20T06:13:17.791Z,64.7120
2019-04-20T06:14:17.203Z,64.0085
2019-04-20T06:15:42.079Z,63.5462
2019-04-20T06:16:52.776Z,62.7802
2019-04-20T06:17:53.180Z,62.1897
2019-04-20T06:19:18.260Z,61.3077
2019-04-20T06:20:12.748Z,60.7248
2019-04-20T06:21:26.577Z,60.0992
2019-04-20T06:22:31.022Z,59.2981
2019-04-20T06:23:41.529Z,58.3688
2019-04-20T06:24:53.110Z,57.1176
2019-04-20T06:26:03.837Z,55.9564
2019-04-20T06:27:00.826Z,55.6252
2019-04-20T06:28:06.653Z,55.4467
2019-04-20T06:29:16.433Z,56.2066
2019-04-20T06:30:20.896Z,54.8013
2019-04-20T06:31:32.476Z,53.6538
2019-04-20T06:32:40.385Z,54.4259
2019-04-20T06:34:01.478Z,55.4513
2019-04-20T06:34:53.507Z,57.0092
2019-04-20T06:36:14.021Z,57.7050
2019-04-20T06:37:09.872Z,57.5250
2019-04-20T06:38:38.324Z,57.0642
2019-04-20T06:40:59.361Z,56.0922
2019-04-20T06:42:02.250Z,55.6542
2019-04-20T06:42:53.483Z,54.9676
2019-04-20T06:44:03.841Z,54.3862
2019-04-20T06:45:16.221Z,54.4579
2019-04-20T06:46:14.833Z,54.1299
2019-04-20T06:47:27.300Z,54.0963
2019-04-20T06:48:41.372Z,54.4823
2019-04-20T06:49:55.090Z,54.2763
2019-04-20T06:50:44.747Z,54.3572
2019-04-20T06:51:59.324Z,54.1238
2019-04-20T06:53:12.935Z,54.2626
2019-04-20T06:54:05.497Z,54.5083
2019-04-20T06:55:14.250Z,54.3755
2019-04-20T06:56:33.632Z,53.7499
2019-04-20T06:57:36.821Z,53.3013
2019-04-20T06:58:54.474Z,53.9681
2019-04-20T06:59:58.016Z,54.0108
2019-04-20T07:01:03.689Z,53.6400
2019-04-20T07:02:17.278Z,53.1411
2019-04-20T07:03:30.976Z,52.8328
2019-04-20T07:04:38.765Z,53.1960
2019-04-20T07:05:34.681Z,53.0983
2019-04-20T07:09:00.565Z,51.2856
2019-04-20T07:11:19.482Z,50.4616
2019-04-20T07:12:17.194Z,48.9876
2019-04-20T07:13:17.658Z,48.8014
2019-04-20T07:14:28.944Z,49.0471
2019-04-20T07:15:42.747Z,48.7953
2019-04-20T07:16:53.179Z,48.0629
2019-04-20T07:18:06.132Z,47.6249
2019-04-20T07:19:07.882Z,47.8614
2019-04-20T07:20:12.840Z,47.3548
2019-04-20T07:21:37.519Z,46.6957
2019-04-20T07:23:42.290Z,46.6453
2019-04-20T07:24:59.291Z,47.0878
2019-04-20T07:26:02.314Z,47.1977
2019-04-20T07:27:10.380Z,47.6234
2019-04-20T07:28:24.152Z,48.0919
2019-04-20T07:29:26.961Z,48.0537
2019-04-20T07:30:33.454Z,48.1788
2019-04-20T07:31:38.025Z,48.6488
2019-04-20T07:32:52.525Z,48.5771
2019-04-20T07:33:52.105Z,48.6259
2019-04-20T07:35:03.062Z,48.8518
2019-04-20T07:36:15.431Z,49.9535
2019-04-20T07:38:36.584Z,52.2469
2019-04-20T07:39:37.312Z,53.4478
2019-04-20T07:40:38.189Z,54.2443
2019-04-20T07:41:57.257Z,54.1070
2019-04-20T07:42:55.364Z,53.9147
2019-04-20T07:44:28.091Z,53.7820
2019-04-20T07:45:16.952Z,54.0337
2019-04-20T07:46:37.556Z,53.9788
2019-04-20T07:47:34.465Z,54.3343
2019-04-20T07:48:39.528Z,54.2428
2019-04-20T07:49:41.624Z,54.4030
2019-04-20T07:50:44.883Z,53.9818
2019-04-20T07:51:43.867Z,54.1024
2019-04-20T07:53:07.449Z,54.3206
2019-04-20T07:54:24.704Z,53.5302
2019-04-20T07:56:39.388Z,52.8664
2019-04-20T07:57:40.497Z,52.7062
2019-04-20T07:58:40.103Z,52.7413
2019-04-20T07:59:59.079Z,53.2723
2019-04-20T08:01:19.665Z,53.5851
2019-04-20T08:02:28.981Z,52.1569
2019-04-20T08:03:29.366Z,51.6808
2019-04-20T08:04:30.053Z,52.0928
2019-04-20T08:05:31.124Z,52.2988
2019-04-20T08:06:36.889Z,52.0790
2019-04-20T08:07:44.752Z,52.2805
2019-04-20T08:08:58.668Z,52.3796
2019-04-20T08:09:58.472Z,52.4529
2019-04-20T08:11:16.430Z,50.6233
2019-04-20T08:12:34.086Z,50.7652
2019-04-20T08:13:42.094Z,50.5409
2019-04-20T08:14:44.453Z,50.5226
2019-04-20T08:18:07.053Z,50.5852
2019-04-20T08:19:12.281Z,50.8003
2019-04-20T08:20:23.317Z,51.4000
2019-04-20T08:21:28.593Z,51.9448
2019-04-20T08:22:42.079Z,52.4041
2019-04-20T08:23:44.088Z,52.7047
2019-04-20T08:24:48.778Z,53.0770
2019-04-20T08:25:56.076Z,52.9381
2019-04-20T08:26:55.885Z,52.7962
2019-04-20T08:27:59.108Z,52.9946
2019-04-20T08:29:09.186Z,52.2652
2019-04-20T08:30:32.307Z,52.0562
2019-04-20T08:31:33.494Z,51.5419
2019-04-20T08:32:45.220Z,51.2993
2019-04-20T08:34:07.778Z,51.1116
2019-04-20T08:35:10.473Z,50.4768
2019-04-20T08:36:10.803Z,50.9743
2019-04-20T08:37:17.467Z,50.2525
2019-04-20T08:39:46.365Z,49.8131
2019-04-20T08:40:45.807Z,48.1727
2019-04-20T08:41:58.893Z,48.2734
2019-04-20T08:43:11.204Z,48.8289
2019-04-20T08:44:21.429Z,46.9612
2019-04-20T08:45:16.767Z,47.2160
2019-04-20T08:46:20.615Z,46.7781
2019-04-20T08:47:38.195Z,46.8956
2019-04-20T08:48:43.571Z,46.7811
2019-04-20T08:49:49.179Z,46.7185
2019-04-20T08:50:58.439Z,46.8910
2019-04-20T08:52:12.840Z,47.4372
2019-04-20T08:54:16.456Z,47.2847
2019-04-20T08:55:23.390Z,47.3945
2019-04-20T08:56:24.608Z,47.3625
2019-04-20T08:57:22.612Z,47.4693
2019-04-20T08:58:25.296Z,46.5263
2019-04-20T08:59:27.318Z,45.8335
2019-04-20T09:00:38.328Z,44.2908
2019-04-20T09:01:39.438Z,41.8280
2019-04-20T09:02:48.906Z,39.6094
2019-04-20T09:04:03.523Z,39.2416
2019-04-20T09:05:04.919Z,40.7034
2019-04-20T09:06:24.959Z,40.3998
2019-04-20T09:07:22.580Z,39.7971
2019-04-20T09:08:29.848Z,37.8317
2019-04-20T09:09:55.813Z,36.9604
2019-04-20T09:11:00.030Z,35.9457
2019-04-20T09:12:07.584Z,35.0057
2019-04-20T09:13:08.336Z,35.0927
2019-04-20T09:14:05.909Z,34.2886
2019-04-20T09:15:10.572Z,34.0322
2019-04-20T09:16:13.329Z,33.8216
2019-04-20T09:17:24.338Z,34.0780
2019-04-20T09:18:31.292Z,34.2275
2019-04-20T09:19:42.760Z,33.7469
2019-04-20T09:20:50.711Z,33.8521
2019-04-20T09:21:55.147Z,33.8064
2019-04-20T09:23:14.573Z,32.3964
2019-04-20T09:24:32.982Z,32.8420
2019-04-20T09:25:48.393Z,31.9585
2019-04-20T09:26:42.292Z,32.6802
2019-04-20T09:27:38.411Z,32.7169
2019-04-20T09:28:48.000Z,33.3593
2019-04-20T09:30:03.333Z,33.4096
2019-04-20T09:31:11.944Z,33.1304
2019-04-20T09:32:16.914Z,32.7077
2019-04-20T09:33:28.896Z,31.8563
2019-04-20T09:34:41.886Z,32.1645
2019-04-20T09:35:42.923Z,31.2490
2019-04-20T09:36:48.399Z,31.1330
2019-04-20T09:38:01.808Z,32.3293
2019-04-20T09:39:01.175Z,33.6782
2019-04-20T09:40:15.867Z,33.4035
2019-04-20T09:41:35.346Z,33.4173
2019-04-20T09:42:14.312Z,33.6522
2019-04-20T09:43:18.547Z,31.7006
2019-04-20T09:44:25.635Z,31.4137
2019-04-20T09:45:37.354Z,30.5943
2019-04-20T09:46:44.390Z,32.9824
2019-04-20T09:47:51.187Z,31.2016
2019-04-20T09:48:59.012Z,30.5745
2019-04-20T09:50:20.946Z,31.0140
2019-04-20T09:51:30.204Z,31.3542
2019-04-20T09:52:32.201Z,31.1574
2019-04-20T09:53:39.389Z,31.9493
2019-04-20T09:54:45.969Z,31.2627
2019-04-20T09:55:59.490Z,31.0323
2019-04-20T09:57:09.117Z,30.9133
2019-04-20T09:58:12.311Z,31.9890
2019-04-20T09:59:22.038Z,31.6869
2019-04-20T10:00:28.906Z,31.1757
2019-04-20T10:01:31.235Z,30.0069
2019-04-20T10:02:34.472Z,29.7826
2019-04-20T10:03:38.818Z,30.4570
2019-04-20T10:04:42.289Z,29.9977
2019-04-20T10:05:45.483Z,29.7612
2019-04-20T10:06:49.613Z,31.0338
2019-04-20T10:07:56.912Z,30.0175
2019-04-20T10:09:03.477Z,31.7433
2019-04-20T10:10:17.860Z,32.5719
2019-04-20T10:11:17.264Z,31.3344
2019-04-20T10:12:21.727Z,30.4509
2019-04-20T10:13:25.312Z,28.9357
2019-04-20T10:14:28.882Z,28.8304
2019-04-20T10:15:32.990Z,27.5761
2019-04-20T10:16:37.739Z,28.3635
2019-04-20T10:17:41.481Z,26.9780
2019-04-20T10:18:48.113Z,27.2007
2019-04-20T10:19:53.431Z,26.9169
2019-04-20T10:20:56.280Z,25.8930
2019-04-20T10:22:02.415Z,28.4916
2019-04-20T10:23:06.697Z,28.1300
2019-04-20T10:24:10.528Z,27.3335
2019-04-20T10:25:13.317Z,27.6600
2019-04-20T10:26:16.464Z,27.1199
2019-04-20T10:27:20.570Z,27.9759
2019-04-20T10:28:25.530Z,28.8167
2019-04-20T10:29:28.370Z,27.7409
2019-04-20T10:30:32.466Z,27.5273
2019-04-20T10:31:42.644Z,28.3330
2019-04-20T10:32:47.235Z,29.9702
2019-04-20T10:33:51.445Z,29.9443
2019-04-20T10:34:54.876Z,30.6065
2019-04-20T10:35:59.442Z,30.4341
2019-04-20T10:37:03.749Z,30.5852
2019-04-20T10:38:07.528Z,30.2052
2019-04-20T10:39:10.877Z,28.6442
2019-04-20T10:40:27.973Z,28.3879
2019-04-20T10:41:36.135Z,26.9780
2019-04-20T10:42:30.267Z,27.0558
2019-04-20T10:43:33.354Z,28.5389
2019-04-20T10:44:36.921Z,28.8685
2019-04-20T10:45:41.224Z,28.6519
2019-04-20T10:46:44.929Z,28.8579
2019-04-20T10:47:48.278Z,26.9444
2019-04-20T10:48:53.304Z,26.8711
2019-04-20T10:49:58.887Z,26.5141
2019-04-20T10:51:03.131Z,25.8045
2019-04-20T10:52:07.485Z,24.6922
2019-04-20T10:53:10.343Z,23.9002
2019-04-20T10:54:14.223Z,24.2817
2019-04-20T10:55:18.599Z,26.3996
2019-04-20T10:56:21.443Z,26.5690
2019-04-20T10:57:25.670Z,26.3325
2019-04-20T10:58:29.587Z,27.6493
2019-04-20T10:59:32.389Z,27.2206
2019-04-20T11:00:35.589Z,27.0680
2019-04-20T11:01:38.317Z,27.1687
2019-04-20T11:02:43.940Z,26.7338
2019-04-20T11:03:48.275Z,26.4103
2019-04-20T11:04:52.538Z,27.9011
2019-04-20T11:05:56.415Z,27.3838
2019-04-20T11:07:00.722Z,27.5456
2019-04-20T11:08:04.393Z,26.2760
2019-04-20T11:09:08.745Z,27.4113
2019-04-20T11:10:19.792Z,26.8681
2019-04-20T11:11:25.218Z,26.8254
2019-04-20T11:12:28.469Z,26.0578
2019-04-20T11:13:31.342Z,26.5324
2019-04-20T11:14:37.212Z,27.3610
2019-04-20T11:15:44.427Z,27.5547
2019-04-20T11:16:48.462Z,27.7287
2019-04-20T11:17:51.435Z,27.5273
2019-04-20T11:18:55.497Z,27.1916
2019-04-20T11:19:59.188Z,26.6285
2019-04-20T11:21:03.525Z,27.3701
2019-04-20T11:22:06.316Z,25.7176
2019-04-20T11:23:10.629Z,25.8198
2019-04-20T11:24:14.371Z,26.1448
2019-04-20T11:25:17.345Z,27.6951
2019-04-20T11:26:20.344Z,27.9438
2019-04-20T11:27:23.304Z,27.8553
2019-04-20T11:28:26.326Z,27.2694
2019-04-20T11:29:29.290Z,28.9189
2019-04-20T11:30:32.342Z,28.1209
2019-04-20T11:31:39.513Z,27.2435
2019-04-20T11:32:44.331Z,27.6905
2019-04-20T11:33:48.025Z,26.9780
2019-04-20T11:34:51.325Z,26.2760
2019-04-20T11:35:54.988Z,26.6880
2019-04-20T11:36:59.233Z,27.7684
2019-04-20T11:38:02.946Z,27.7607
2019-04-20T11:39:07.127Z,28.2307
2019-04-20T11:40:10.918Z,27.8874
2019-04-20T11:41:22.753Z,27.5456
2019-04-20T11:42:23.544Z,27.0497
2019-04-20T11:43:26.285Z,27.3426
2019-04-20T11:44:31.457Z,27.3487
2019-04-20T11:45:38.422Z,27.6417
2019-04-20T11:46:42.803Z,26.4790
2019-04-20T11:47:47.400Z,27.2847
2019-04-20T11:48:51.707Z,27.5593
2019-04-20T11:49:55.461Z,27.7958
2019-04-20T11:50:58.353Z,27.6097
2019-04-20T11:52:01.521Z,27.7562
2019-04-20T11:53:05.265Z,26.9322
2019-04-20T11:54:08.377Z,26.2440
2019-04-20T11:55:12.519Z,27.5944
2019-04-20T11:56:23.806Z,26.2440
2019-04-20T11:57:23.313Z,25.0034
2019-04-20T11:58:26.306Z,25.4475
2019-04-20T11:59:30.346Z,24.6983
2019-04-20T12:00:34.290Z,24.6113
2019-04-20T12:01:47.651Z,24.7059
2019-04-20T12:02:53.560Z,24.6418
2019-04-20T12:04:04.110Z,24.7211
2019-04-20T12:05:17.357Z,24.9317
2019-04-20T12:06:13.306Z,25.6855
2019-04-20T12:07:19.223Z,25.4932
2019-04-20T12:08:22.941Z,25.4658
2019-04-20T12:09:26.342Z,25.8183
2019-04-20T12:10:30.049Z,25.9937
2019-04-20T12:11:47.533Z,26.1082
2019-04-20T12:12:47.293Z,26.1723
2019-04-20T12:13:50.307Z,26.5141
2019-04-20T12:14:54.671Z,26.6056
2019-04-20T12:15:59.360Z,25.4566
2019-04-20T12:17:03.672Z,25.5253
2019-04-20T12:18:07.583Z,24.9897
2019-04-20T12:19:10.553Z,24.0940
2019-04-20T12:20:14.533Z,24.1291
2019-04-20T12:21:17.286Z,25.5222
2019-04-20T12:22:21.506Z,26.4225
2019-04-20T12:23:24.528Z,26.2669
2019-04-20T12:24:27.310Z,26.3310
2019-04-20T12:25:34.173Z,27.0100
2019-04-20T12:26:38.681Z,26.7491
2019-04-20T12:27:48.806Z,26.7079
2019-04-20T12:28:49.686Z,26.3874
2019-04-20T12:29:52.277Z,26.9490
2019-04-20T12:31:03.053Z,26.7124
2019-04-20T12:32:05.431Z,26.9917
2019-04-20T12:33:11.501Z,27.3838
2019-04-20T12:34:14.317Z,26.1753
2019-04-20T12:35:18.163Z,26.8391
2019-04-20T12:36:21.319Z,27.4907
2019-04-20T12:37:25.068Z,27.2145
2019-04-20T12:38:28.374Z,26.7475
2019-04-20T12:39:31.308Z,27.0451
2019-04-20T12:40:35.417Z,26.2669
2019-04-20T12:41:45.345Z,26.4515
2019-04-20T12:42:46.635Z,27.3152
2019-04-20T12:43:49.815Z,27.6921
2019-04-20T12:44:53.427Z,27.4311
2019-04-20T12:45:55.853Z,27.2847
2019-04-20T12:46:59.642Z,26.8986
2019-04-20T12:48:03.773Z,26.9551
2019-04-20T12:49:07.671Z,27.9149
2019-04-20T12:50:11.872Z,27.4632
2019-04-20T12:51:15.583Z,28.0568
2019-04-20T12:52:18.583Z,28.0064
2019-04-20T12:53:22.344Z,28.0034
2019-04-20T12:54:25.326Z,27.9759
2019-04-20T12:55:28.401Z,28.3040
2019-04-20T12:56:32.663Z,27.5990
2019-04-20T12:57:36.552Z,28.0262
2019-04-20T12:58:42.968Z,27.7317
2019-04-20T12:59:48.712Z,27.4342
2019-04-20T13:00:52.429Z,27.0268
2019-04-20T13:01:55.490Z,26.8895
2019-04-20T13:02:59.150Z,27.3884
2019-04-20T13:04:04.499Z,27.5761
2019-04-20T13:05:09.427Z,27.5029
2019-04-20T13:06:12.276Z,27.8614
2019-04-20T13:07:15.627Z,27.9988
2019-04-20T13:08:29.595Z,27.4678
2019-04-20T13:09:26.397Z,27.4067
2019-04-20T13:10:29.612Z,27.0695
2019-04-20T13:11:44.353Z,26.8803
2019-04-20T13:12:40.679Z,26.6423
2019-04-20T13:13:44.339Z,26.4912
2019-04-20T13:14:48.443Z,27.0695
2019-04-20T13:15:52.149Z,26.5843
2019-04-20T13:16:56.825Z,26.7704
2019-04-20T13:18:01.245Z,26.5843
2019-04-20T13:19:05.608Z,27.8004
2019-04-20T13:20:08.307Z,26.9963
2019-04-20T13:21:11.349Z,27.8233
2019-04-20T13:22:14.839Z,27.5273
2019-04-20T13:23:20.144Z,27.6921
2019-04-20T13:24:23.324Z,27.5822
2019-04-20T13:25:26.380Z,27.1321
2019-04-20T13:26:29.329Z,26.8223
2019-04-20T13:27:32.304Z,27.0909
2019-04-20T13:28:35.310Z,26.3508
2019-04-20T13:29:38.395Z,26.2303
2019-04-20T13:30:41.893Z,26.6423
2019-04-20T13:31:45.272Z,27.1794
2019-04-20T13:32:48.332Z,27.4540
2019-04-20T13:33:51.641Z,27.4586
2019-04-20T13:34:54.366Z,27.6005
2019-04-20T13:35:58.473Z,26.5461
2019-04-20T13:37:02.256Z,26.0151
2019-04-20T13:38:05.301Z,25.6962
2019-04-20T13:39:08.324Z,25.2506
2019-04-20T13:40:11.335Z,25.5253
2019-04-20T13:41:15.668Z,24.8905
2019-04-20T13:42:24.556Z,25.0004
2019-04-20T13:43:27.961Z,25.0736
2019-04-20T13:44:32.399Z,25.5543
2019-04-20T13:45:35.282Z,25.0034
2019-04-20T13:46:38.887Z,24.8218
2019-04-20T13:47:43.208Z,24.0787
2019-04-20T13:48:46.842Z,24.8661
2019-04-20T13:49:51.348Z,25.7954
2019-04-20T13:50:56.074Z,25.1133
2019-04-20T13:51:59.321Z,26.1311